WXM80 ListenWXM80 Stop

You find our weather info also at:

UK Metoffice

WeatherCloud

Weather Underground

Northeastern Weather Network

AWEKAS

Citizen Weather Observer Program (CWOP)

HAMweather, WeatherForYou, PWS Weather


Weather Underground History page Text

Daily Summary for June 11, 2017 Units:  Both    English   Metric
« Previous Day
Next Day »
Daily Weekly Monthly Yearly Custom
  High: Low: Average:
Temperature: 95.4 °F /  35.2 °C 68.9 °F /  20.5 °C 80.7 °F /  27.1 °C
Dew Point: 70.7 °F /  21.5 °C 62.6 °F /  17 °C 65.9 °F /  18.8 °C
Humidity: 82 % 39 % 63 %
Wind Speed: 8.3 mph /  13.4 km/h - 2 mph /  3.2 km/h
Wind Gust: 17.3 mph /  27.8 km/h - -
Wind:- - SW
Pressure: 30.03 in /  1016.8 hPa 29.92 in /  1013.1 hPa -
Precipitation: 0.00 in /  0 mm    
Historical Graphs
 
 
Tabular Data for June 11, 2017
Time Temperature Dew Point Pressure Wind Wind Speed Wind Gust Humidity Rainfall Rate (Hourly)
00:04 71.5 °F /  21.9 °C 62.8 °F /  17.1 °C 29.98 in /  1015.1 hPa SW 2.4 mph /  3.9 km/h 3.5 mph /  5.6 km/h 74 % 0.00 in /  0 mm
00:14 71.4 °F /  21.9 °C 62.7 °F /  17.1 °C 29.98 in /  1015.1 hPa SSW 3.9 mph /  6.3 km/h 4.6 mph /  7.4 km/h 74 % 0.00 in /  0 mm
00:15 71.4 °F /  21.9 °C 62.7 °F /  17.1 °C 29.98 in /  1015.1 hPa West 0.9 mph /  1.4 km/h 4.6 mph /  7.4 km/h 74 % 0.00 in /  0 mm
00:20 71.4 °F /  21.9 °C 63.1 °F /  17.3 °C 29.98 in /  1015.1 hPa West 1.6 mph /  2.6 km/h 3.5 mph /  5.6 km/h 75 % 0.00 in /  0 mm
00:25 71.3 °F /  21.8 °C 63.0 °F /  17.2 °C 29.98 in /  1015.1 hPa South 2.4 mph /  3.9 km/h 3.5 mph /  5.6 km/h 75 % 0.00 in /  0 mm
00:30 71.3 °F /  21.8 °C 63.0 °F /  17.2 °C 29.98 in /  1015.1 hPa SW 2.2 mph /  3.5 km/h 3.5 mph /  5.6 km/h 75 % 0.00 in /  0 mm
00:35 71.2 °F /  21.8 °C 62.9 °F /  17.2 °C 29.98 in /  1015.1 hPa West 0.9 mph /  1.4 km/h 3.5 mph /  5.6 km/h 75 % 0.00 in /  0 mm
00:40 71.2 °F /  21.8 °C 62.9 °F /  17.2 °C 29.98 in /  1015.1 hPa WSW 0.9 mph /  1.4 km/h 5.8 mph /  9.3 km/h 75 % 0.00 in /  0 mm
00:45 71.1 °F /  21.7 °C 62.8 °F /  17.1 °C 29.98 in /  1015.1 hPa WSW 3.3 mph /  5.3 km/h 4.6 mph /  7.4 km/h 75 % 0.00 in /  0 mm
00:50 71.0 °F /  21.7 °C 63.1 °F /  17.3 °C 29.98 in /  1015.1 hPa SW 0.7 mph /  1.1 km/h 4.6 mph /  7.4 km/h 76 % 0.00 in /  0 mm
00:55 70.9 °F /  21.6 °C 63.0 °F /  17.2 °C 29.98 in /  1015.1 hPa SW 1.4 mph /  2.3 km/h 3.5 mph /  5.6 km/h 76 % 0.00 in /  0 mm
01:00 70.9 °F /  21.6 °C 63.0 °F /  17.2 °C 29.98 in /  1015.1 hPa SW 1.1 mph /  1.8 km/h 4.0 mph /  6.4 km/h 76 % 0.00 in /  0 mm
01:05 70.8 °F /  21.6 °C 62.9 °F /  17.2 °C 29.98 in /  1015.1 hPa WSW 1.8 mph /  2.9 km/h 4.0 mph /  6.4 km/h 76 % 0.00 in /  0 mm
01:10 70.8 °F /  21.6 °C 62.9 °F /  17.2 °C 29.98 in /  1015.1 hPa WSW 2.1 mph /  3.4 km/h 3.5 mph /  5.6 km/h 76 % 0.00 in /  0 mm
01:15 70.7 °F /  21.5 °C 62.8 °F /  17.1 °C 29.98 in /  1015.1 hPa West 1.6 mph /  2.6 km/h 4.6 mph /  7.4 km/h 76 % 0.00 in /  0 mm
01:20 70.7 °F /  21.5 °C 62.8 °F /  17.1 °C 29.98 in /  1015.1 hPa WSW 2.5 mph /  4 km/h 3.5 mph /  5.6 km/h 76 % 0.00 in /  0 mm
01:25 70.6 °F /  21.4 °C 62.7 °F /  17.1 °C 29.98 in /  1015.1 hPa SW 1.3 mph /  2.1 km/h 3.5 mph /  5.6 km/h 76 % 0.00 in /  0 mm
01:30 70.6 °F /  21.4 °C 62.7 °F /  17.1 °C 29.99 in /  1015.5 hPa WSW 1.7 mph /  2.7 km/h 3.5 mph /  5.6 km/h 76 % 0.00 in /  0 mm
01:36 70.6 °F /  21.4 °C 62.7 °F /  17.1 °C 29.99 in /  1015.5 hPa SSW 1.3 mph /  2.1 km/h 4.0 mph /  6.4 km/h 76 % 0.00 in /  0 mm
01:41 70.6 °F /  21.4 °C 62.7 °F /  17.1 °C 29.99 in /  1015.5 hPa WSW 2.6 mph /  4.2 km/h 3.5 mph /  5.6 km/h 76 % 0.00 in /  0 mm
01:46 70.5 °F /  21.4 °C 62.6 °F /  17 °C 29.99 in /  1015.5 hPa SW 2.0 mph /  3.2 km/h 3.5 mph /  5.6 km/h 76 % 0.00 in /  0 mm
01:51 70.5 °F /  21.4 °C 62.6 °F /  17 °C 29.99 in /  1015.5 hPa SW 2.6 mph /  4.2 km/h 6.9 mph /  11.1 km/h 76 % 0.00 in /  0 mm
01:56 70.5 °F /  21.4 °C 62.6 °F /  17 °C 29.99 in /  1015.5 hPa SW 1.0 mph /  1.6 km/h 4.0 mph /  6.4 km/h 76 % 0.00 in /  0 mm
02:01 70.5 °F /  21.4 °C 62.6 °F /  17 °C 29.99 in /  1015.5 hPa WSW 0.7 mph /  1.1 km/h 4.6 mph /  7.4 km/h 76 % 0.00 in /  0 mm
02:06 70.5 °F /  21.4 °C 62.6 °F /  17 °C 29.99 in /  1015.5 hPa SW 5.0 mph /  8 km/h 12.0 mph /  19.3 km/h 76 % 0.00 in /  0 mm
02:11 70.6 °F /  21.4 °C 62.7 °F /  17.1 °C 29.99 in /  1015.5 hPa SW 5.0 mph /  8 km/h 7.0 mph /  11.3 km/h 76 % 0.00 in /  0 mm
02:12 70.6 °F /  21.4 °C 62.7 °F /  17.1 °C 29.99 in /  1015.5 hPa SSW 2.8 mph /  4.5 km/h 4.6 mph /  7.4 km/h 76 % 0.00 in /  0 mm
02:18 70.6 °F /  21.4 °C 62.7 °F /  17.1 °C 29.99 in /  1015.5 hPa SW 1.6 mph /  2.6 km/h 3.5 mph /  5.6 km/h 76 % 0.00 in /  0 mm
02:23 70.6 °F /  21.4 °C 62.7 °F /  17.1 °C 29.99 in /  1015.5 hPa WSW 1.7 mph /  2.7 km/h 3.5 mph /  5.6 km/h 76 % 0.00 in /  0 mm
02:28 70.7 °F /  21.5 °C 62.8 °F /  17.1 °C 29.99 in /  1015.5 hPa SW 3.8 mph /  6.1 km/h 8.1 mph /  13 km/h 76 % 0.00 in /  0 mm
02:33 70.7 °F /  21.5 °C 62.8 °F /  17.1 °C 29.99 in /  1015.5 hPa Calm   5.8 mph /  9.3 km/h 76 % 0.00 in /  0 mm
02:38 70.7 °F /  21.5 °C 62.8 °F /  17.1 °C 29.99 in /  1015.5 hPa SW 0.2 mph /  0.3 km/h 1.2 mph /  1.9 km/h 76 % 0.00 in /  0 mm
02:43 70.6 °F /  21.4 °C 63.0 °F /  17.2 °C 29.99 in /  1015.5 hPa SW 2.3 mph /  3.7 km/h 5.8 mph /  9.3 km/h 77 % 0.00 in /  0 mm
02:48 70.6 °F /  21.4 °C 63.0 °F /  17.2 °C 29.99 in /  1015.5 hPa SW 2.9 mph /  4.7 km/h 4.6 mph /  7.4 km/h 77 % 0.00 in /  0 mm
02:53 70.6 °F /  21.4 °C 63.0 °F /  17.2 °C 29.98 in /  1015.1 hPa SSW 1.0 mph /  1.6 km/h 4.6 mph /  7.4 km/h 77 % 0.00 in /  0 mm
02:58 70.6 °F /  21.4 °C 63.0 °F /  17.2 °C 29.98 in /  1015.1 hPa SSW 0.4 mph /  0.6 km/h 2.3 mph /  3.7 km/h 77 % 0.00 in /  0 mm
03:03 70.5 °F /  21.4 °C 62.9 °F /  17.2 °C 29.98 in /  1015.1 hPa WSW 2.0 mph /  3.2 km/h 3.5 mph /  5.6 km/h 77 % 0.00 in /  0 mm
03:08 70.5 °F /  21.4 °C 62.9 °F /  17.2 °C 29.98 in /  1015.1 hPa SSW 1.3 mph /  2.1 km/h 3.5 mph /  5.6 km/h 77 % 0.00 in /  0 mm
03:13 70.5 °F /  21.4 °C 62.9 °F /  17.2 °C 29.98 in /  1015.1 hPa SW 1.4 mph /  2.3 km/h 3.5 mph /  5.6 km/h 77 % 0.00 in /  0 mm
03:18 70.4 °F /  21.3 °C 63.2 °F /  17.3 °C 29.98 in /  1015.1 hPa WSW 0.8 mph /  1.3 km/h 3.5 mph /  5.6 km/h 78 % 0.00 in /  0 mm
03:23 70.4 °F /  21.3 °C 63.2 °F /  17.3 °C 29.98 in /  1015.1 hPa SW 3.9 mph /  6.3 km/h 5.8 mph /  9.3 km/h 78 % 0.00 in /  0 mm
03:28 70.4 °F /  21.3 °C 63.2 °F /  17.3 °C 29.98 in /  1015.1 hPa WSW 1.5 mph /  2.4 km/h 3.5 mph /  5.6 km/h 78 % 0.00 in /  0 mm
03:33 70.4 °F /  21.3 °C 63.2 °F /  17.3 °C 29.98 in /  1015.1 hPa WSW 1.8 mph /  2.9 km/h 3.5 mph /  5.6 km/h 78 % 0.00 in /  0 mm
03:38 70.4 °F /  21.3 °C 63.2 °F /  17.3 °C 29.98 in /  1015.1 hPa SSE 0.5 mph /  0.8 km/h 2.3 mph /  3.7 km/h 78 % 0.00 in /  0 mm
03:43 70.3 °F /  21.3 °C 63.1 °F /  17.3 °C 29.98 in /  1015.1 hPa SW 0.2 mph /  0.3 km/h 1.2 mph /  1.9 km/h 78 % 0.00 in /  0 mm
03:48 70.3 °F /  21.3 °C 63.1 °F /  17.3 °C 29.98 in /  1015.1 hPa SW 0.9 mph /  1.4 km/h 2.3 mph /  3.7 km/h 78 % 0.00 in /  0 mm
03:53 70.2 °F /  21.2 °C 63.0 °F /  17.2 °C 29.98 in /  1015.1 hPa SW 1.9 mph /  3.1 km/h 3.5 mph /  5.6 km/h 78 % 0.00 in /  0 mm
03:58 70.1 °F /  21.2 °C 62.9 °F /  17.2 °C 29.98 in /  1015.1 hPa SW 1.7 mph /  2.7 km/h 2.3 mph /  3.7 km/h 78 % 0.00 in /  0 mm
04:03 70.1 °F /  21.2 °C 62.9 °F /  17.2 °C 29.98 in /  1015.1 hPa WSW 2.6 mph /  4.2 km/h 4.0 mph /  6.4 km/h 78 % 0.00 in /  0 mm
04:08 70.0 °F /  21.1 °C 63.2 °F /  17.3 °C 29.98 in /  1015.1 hPa WSW 3.8 mph /  6.1 km/h 4.6 mph /  7.4 km/h 79 % 0.00 in /  0 mm
04:13 69.9 °F /  21.1 °C 63.1 °F /  17.3 °C 29.98 in /  1015.1 hPa SSW 1.9 mph /  3.1 km/h 4.0 mph /  6.4 km/h 79 % 0.00 in /  0 mm
04:18 69.9 °F /  21.1 °C 63.1 °F /  17.3 °C 29.98 in /  1015.1 hPa SW 2.4 mph /  3.9 km/h 3.5 mph /  5.6 km/h 79 % 0.00 in /  0 mm
04:24 69.8 °F /  21 °C 63.0 °F /  17.2 °C 29.98 in /  1015.1 hPa SW 2.8 mph /  4.5 km/h 5.8 mph /  9.3 km/h 79 % 0.00 in /  0 mm
04:29 69.8 °F /  21 °C 63.0 °F /  17.2 °C 29.98 in /  1015.1 hPa SSW 3.6 mph /  5.8 km/h 4.6 mph /  7.4 km/h 79 % 0.00 in /  0 mm
04:34 69.8 °F /  21 °C 63.3 °F /  17.4 °C 29.99 in /  1015.5 hPa WSW 3.7 mph /  6 km/h 6.9 mph /  11.1 km/h 80 % 0.00 in /  0 mm
04:39 69.8 °F /  21 °C 63.3 °F /  17.4 °C 29.99 in /  1015.5 hPa WSW 1.9 mph /  3.1 km/h 4.6 mph /  7.4 km/h 80 % 0.00 in /  0 mm
04:44 69.7 °F /  20.9 °C 63.3 °F /  17.4 °C 29.99 in /  1015.5 hPa SW 2.4 mph /  3.9 km/h 5.0 mph /  8 km/h 80 % 0.00 in /  0 mm
04:49 69.7 °F /  20.9 °C 63.3 °F /  17.4 °C 29.99 in /  1015.5 hPa SW 1.8 mph /  2.9 km/h 4.6 mph /  7.4 km/h 80 % 0.00 in /  0 mm
04:54 69.6 °F /  20.9 °C 63.2 °F /  17.3 °C 29.99 in /  1015.5 hPa WSW 2.2 mph /  3.5 km/h 3.5 mph /  5.6 km/h 80 % 0.00 in /  0 mm
04:59 69.5 °F /  20.8 °C 63.1 °F /  17.3 °C 29.99 in /  1015.5 hPa SW 1.7 mph /  2.7 km/h 4.6 mph /  7.4 km/h 80 % 0.00 in /  0 mm
05:04 69.5 °F /  20.8 °C 63.1 °F /  17.3 °C 29.99 in /  1015.5 hPa WSW 1.3 mph /  2.1 km/h 3.5 mph /  5.6 km/h 80 % 0.00 in /  0 mm
05:09 69.4 °F /  20.8 °C 63.0 °F /  17.2 °C 29.99 in /  1015.5 hPa South 1.7 mph /  2.7 km/h 4.0 mph /  6.4 km/h 80 % 0.00 in /  0 mm
05:14 69.3 °F /  20.7 °C 63.2 °F /  17.3 °C 30.00 in /  1015.8 hPa WSW 2.1 mph /  3.4 km/h 3.5 mph /  5.6 km/h 81 % 0.00 in /  0 mm
05:19 69.2 °F /  20.7 °C 63.1 °F /  17.3 °C 30.00 in /  1015.8 hPa SSW 1.8 mph /  2.9 km/h 3.5 mph /  5.6 km/h 81 % 0.00 in /  0 mm
05:24 69.2 °F /  20.7 °C 63.1 °F /  17.3 °C 30.00 in /  1015.8 hPa WSW 1.4 mph /  2.3 km/h 3.5 mph /  5.6 km/h 81 % 0.00 in /  0 mm
05:29 69.1 °F /  20.6 °C 63.0 °F /  17.2 °C 30.00 in /  1015.8 hPa SW 2.4 mph /  3.9 km/h 3.5 mph /  5.6 km/h 81 % 0.00 in /  0 mm
05:34 69.1 °F /  20.6 °C 63.0 °F /  17.2 °C 30.00 in /  1015.8 hPa SW 1.5 mph /  2.4 km/h 3.5 mph /  5.6 km/h 81 % 0.00 in /  0 mm
05:39 69.0 °F /  20.6 °C 62.9 °F /  17.2 °C 30.00 in /  1015.8 hPa Calm   1.2 mph /  1.9 km/h 81 % 0.00 in /  0 mm
05:44 69.0 °F /  20.6 °C 62.9 °F /  17.2 °C 30.00 in /  1015.8 hPa WSW 1.8 mph /  2.9 km/h 4.0 mph /  6.4 km/h 81 % 0.00 in /  0 mm
05:49 69.0 °F /  20.6 °C 63.3 °F /  17.4 °C 30.00 in /  1015.8 hPa SSW 3.1 mph /  5 km/h 6.9 mph /  11.1 km/h 82 % 0.00 in /  0 mm
05:54 68.9 °F /  20.5 °C 63.2 °F /  17.3 °C 30.00 in /  1015.8 hPa West 2.6 mph /  4.2 km/h 5.8 mph /  9.3 km/h 82 % 0.00 in /  0 mm
05:59 68.9 °F /  20.5 °C 63.2 °F /  17.3 °C 30.01 in /  1016.1 hPa SW 1.7 mph /  2.7 km/h 5.8 mph /  9.3 km/h 82 % 0.00 in /  0 mm
06:04 69.0 °F /  20.6 °C 63.3 °F /  17.4 °C 30.01 in /  1016.1 hPa SW 1.2 mph /  1.9 km/h 3.5 mph /  5.6 km/h 82 % 0.00 in /  0 mm
06:09 69.0 °F /  20.6 °C 63.3 °F /  17.4 °C 30.01 in /  1016.1 hPa SW 0.3 mph /  0.5 km/h 1.2 mph /  1.9 km/h 82 % 0.00 in /  0 mm
06:14 69.1 °F /  20.6 °C 63.4 °F /  17.4 °C 30.01 in /  1016.1 hPa WSW 1.8 mph /  2.9 km/h 3.5 mph /  5.6 km/h 82 % 0.00 in /  0 mm
06:19 69.2 °F /  20.7 °C 63.5 °F /  17.5 °C 30.01 in /  1016.1 hPa SW 0.2 mph /  0.3 km/h 1.2 mph /  1.9 km/h 82 % 0.00 in /  0 mm
06:24 69.4 °F /  20.8 °C 63.3 °F /  17.4 °C 30.02 in /  1016.5 hPa SW 1.1 mph /  1.8 km/h 3.5 mph /  5.6 km/h 81 % 0.00 in /  0 mm
06:29 69.6 °F /  20.9 °C 63.9 °F /  17.7 °C 30.02 in /  1016.5 hPa Calm   1.0 mph /  1.6 km/h 82 % 0.00 in /  0 mm
06:34 69.8 °F /  21 °C 64.1 °F /  17.8 °C 30.02 in /  1016.5 hPa WSW 1.6 mph /  2.6 km/h 2.3 mph /  3.7 km/h 82 % 0.00 in /  0 mm
06:39 70.1 °F /  21.2 °C 64.0 °F /  17.8 °C 30.02 in /  1016.5 hPa WSW 0.4 mph /  0.6 km/h 4.0 mph /  6.4 km/h 81 % 0.00 in /  0 mm
06:44 70.4 °F /  21.3 °C 64.3 °F /  17.9 °C 30.02 in /  1016.5 hPa West 0.4 mph /  0.6 km/h 2.3 mph /  3.7 km/h 81 % 0.00 in /  0 mm
06:49 70.6 °F /  21.4 °C 64.5 °F /  18.1 °C 30.02 in /  1016.5 hPa WSW 1.1 mph /  1.8 km/h 3.5 mph /  5.6 km/h 81 % 0.00 in /  0 mm
06:54 71.0 °F /  21.7 °C 64.5 °F /  18.1 °C 30.02 in /  1016.5 hPa SW 3.2 mph /  5.1 km/h 3.5 mph /  5.6 km/h 80 % 0.00 in /  0 mm
06:59 71.5 °F /  21.9 °C 64.6 °F /  18.1 °C 30.01 in /  1016.1 hPa WSW 1.4 mph /  2.3 km/h 2.3 mph /  3.7 km/h 79 % 0.00 in /  0 mm
07:04 71.9 °F /  22.2 °C 65.0 °F /  18.3 °C 30.01 in /  1016.1 hPa SSW 1.1 mph /  1.8 km/h 3.0 mph /  4.8 km/h 79 % 0.00 in /  0 mm
07:09 72.3 °F /  22.4 °C 65.1 °F /  18.4 °C 30.01 in /  1016.1 hPa SW 2.7 mph /  4.3 km/h 3.5 mph /  5.6 km/h 78 % 0.00 in /  0 mm
07:14 72.8 °F /  22.7 °C 65.2 °F /  18.4 °C 30.01 in /  1016.1 hPa WSW 1.1 mph /  1.8 km/h 3.5 mph /  5.6 km/h 77 % 0.00 in /  0 mm
07:20 73.3 °F /  22.9 °C 65.3 °F /  18.5 °C 30.02 in /  1016.5 hPa WNW 1.6 mph /  2.6 km/h 3.0 mph /  4.8 km/h 76 % 0.00 in /  0 mm
07:25 73.7 °F /  23.2 °C 65.7 °F /  18.7 °C 30.01 in /  1016.1 hPa WSW 1.5 mph /  2.4 km/h 3.5 mph /  5.6 km/h 76 % 0.00 in /  0 mm
07:30 74.2 °F /  23.4 °C 65.8 °F /  18.8 °C 30.01 in /  1016.1 hPa West 0.8 mph /  1.3 km/h 3.0 mph /  4.8 km/h 75 % 0.00 in /  0 mm
07:35 74.7 °F /  23.7 °C 65.9 °F /  18.8 °C 30.01 in /  1016.1 hPa WSW 3.5 mph /  5.6 km/h 3.5 mph /  5.6 km/h 74 % 0.00 in /  0 mm
07:39 75.1 °F /  23.9 °C 65.9 °F /  18.8 °C 30.01 in /  1016.1 hPa WSW 0.2 mph /  0.3 km/h 2.0 mph /  3.2 km/h 73 % 0.00 in /  0 mm
07:44 75.3 °F /  24.1 °C 66.0 °F /  18.9 °C 30.02 in /  1016.5 hPa SSW 1.1 mph /  1.8 km/h 2.3 mph /  3.7 km/h 73 % 0.00 in /  0 mm
07:49 75.5 °F /  24.2 °C 66.2 °F /  19 °C 30.02 in /  1016.5 hPa West 2.3 mph /  3.7 km/h 3.5 mph /  5.6 km/h 73 % 0.00 in /  0 mm
07:54 75.6 °F /  24.2 °C 66.3 °F /  19.1 °C 30.02 in /  1016.5 hPa SW 2.5 mph /  4 km/h 3.5 mph /  5.6 km/h 73 % 0.00 in /  0 mm
07:59 75.8 °F /  24.3 °C 66.5 °F /  19.2 °C 30.02 in /  1016.5 hPa West 1.3 mph /  2.1 km/h 3.5 mph /  5.6 km/h 73 % 0.00 in /  0 mm
08:04 75.9 °F /  24.4 °C 66.2 °F /  19 °C 30.02 in /  1016.5 hPa WSW 3.6 mph /  5.8 km/h 5.8 mph /  9.3 km/h 72 % 0.00 in /  0 mm
08:09 76.1 °F /  24.5 °C 66.0 °F /  18.9 °C 30.02 in /  1016.5 hPa WSW 1.9 mph /  3.1 km/h 3.5 mph /  5.6 km/h 71 % 0.00 in /  0 mm
08:14 76.3 °F /  24.6 °C 66.6 °F /  19.2 °C 30.02 in /  1016.5 hPa WSW 2.4 mph /  3.9 km/h 4.6 mph /  7.4 km/h 72 % 0.00 in /  0 mm
08:19 76.5 °F /  24.7 °C 66.4 °F /  19.1 °C 30.02 in /  1016.5 hPa SW 3.8 mph /  6.1 km/h 6.9 mph /  11.1 km/h 71 % 0.00 in /  0 mm
08:24 76.7 °F /  24.8 °C 66.6 °F /  19.2 °C 30.02 in /  1016.5 hPa WSW 3.0 mph /  4.8 km/h 5.0 mph /  8 km/h 71 % 0.00 in /  0 mm
08:29 76.9 °F /  24.9 °C 66.8 °F /  19.3 °C 30.03 in /  1016.8 hPa WSW 3.6 mph /  5.8 km/h 6.0 mph /  9.7 km/h 71 % 0.00 in /  0 mm
08:34 77.1 °F /  25.1 °C 66.1 °F /  18.9 °C 30.02 in /  1016.5 hPa WNW 2.7 mph /  4.3 km/h 8.1 mph /  13 km/h 69 % 0.00 in /  0 mm
08:39 77.4 °F /  25.2 °C 66.4 °F /  19.1 °C 30.02 in /  1016.5 hPa WNW 1.4 mph /  2.3 km/h 3.5 mph /  5.6 km/h 69 % 0.00 in /  0 mm
08:44 77.7 °F /  25.4 °C 66.7 °F /  19.3 °C 30.02 in /  1016.5 hPa West 1.8 mph /  2.9 km/h 3.5 mph /  5.6 km/h 69 % 0.00 in /  0 mm
08:50 77.9 °F /  25.5 °C 66.5 °F /  19.2 °C 30.02 in /  1016.5 hPa SW 3.1 mph /  5 km/h 5.8 mph /  9.3 km/h 68 % 0.00 in /  0 mm
08:55 78.1 °F /  25.6 °C 66.7 °F /  19.3 °C 30.02 in /  1016.5 hPa WSW 3.9 mph /  6.3 km/h 8.1 mph /  13 km/h 68 % 0.00 in /  0 mm
09:00 78.3 °F /  25.7 °C 66.4 °F /  19.1 °C 30.02 in /  1016.5 hPa SW 5.5 mph /  8.9 km/h 9.2 mph /  14.8 km/h 67 % 0.00 in /  0 mm
09:05 78.6 °F /  25.9 °C 66.3 °F /  19.1 °C 30.02 in /  1016.5 hPa WSW 1.9 mph /  3.1 km/h 5.8 mph /  9.3 km/h 66 % 0.00 in /  0 mm
09:10 78.8 °F /  26 °C 66.9 °F /  19.4 °C 30.02 in /  1016.5 hPa WSW 2.1 mph /  3.4 km/h 4.6 mph /  7.4 km/h 67 % 0.00 in /  0 mm
09:15 79.1 °F /  26.2 °C 67.2 °F /  19.6 °C 30.02 in /  1016.5 hPa WNW 2.7 mph /  4.3 km/h 4.6 mph /  7.4 km/h 67 % 0.00 in /  0 mm
09:20 79.3 °F /  26.3 °C 67.0 °F /  19.4 °C 30.02 in /  1016.5 hPa WSW 2.1 mph /  3.4 km/h 3.5 mph /  5.6 km/h 66 % 0.00 in /  0 mm
09:25 79.6 °F /  26.4 °C 66.8 °F /  19.3 °C 30.02 in /  1016.5 hPa WSW 2.4 mph /  3.9 km/h 4.6 mph /  7.4 km/h 65 % 0.00 in /  0 mm
09:35 80.3 °F /  26.8 °C 67.0 °F /  19.4 °C 30.02 in /  1016.5 hPa SW 1.9 mph /  3.1 km/h 6.9 mph /  11.1 km/h 64 % 0.00 in /  0 mm
09:40 80.7 °F /  27.1 °C 67.4 °F /  19.7 °C 30.02 in /  1016.5 hPa WNW 1.1 mph /  1.8 km/h 3.5 mph /  5.6 km/h 64 % 0.00 in /  0 mm
09:45 81.1 °F /  27.3 °C 67.8 °F /  19.9 °C 30.02 in /  1016.5 hPa WNW 2.3 mph /  3.7 km/h 3.0 mph /  4.8 km/h 64 % 0.00 in /  0 mm
09:50 81.6 °F /  27.6 °C 68.2 °F /  20.1 °C 30.02 in /  1016.5 hPa WSW 2.5 mph /  4 km/h 3.5 mph /  5.6 km/h 64 % 0.00 in /  0 mm
09:55 82.1 °F /  27.8 °C 67.3 °F /  19.6 °C 30.02 in /  1016.5 hPa WSW 4.9 mph /  7.9 km/h 6.0 mph /  9.7 km/h 61 % 0.00 in /  0 mm
10:00 82.8 °F /  28.2 °C 67.0 °F /  19.4 °C 30.02 in /  1016.5 hPa West 5.7 mph /  9.2 km/h 10.4 mph /  16.7 km/h 59 % 0.00 in /  0 mm
10:05 83.4 °F /  28.6 °C 67.1 °F /  19.5 °C 30.02 in /  1016.5 hPa WSW 1.1 mph /  1.8 km/h 6.9 mph /  11.1 km/h 58 % 0.00 in /  0 mm
10:10 84.0 °F /  28.9 °C 68.1 °F /  20.1 °C 30.02 in /  1016.5 hPa West 4.4 mph /  7.1 km/h 5.0 mph /  8 km/h 59 % 0.00 in /  0 mm
10:15 84.7 °F /  29.3 °C 67.8 °F /  19.9 °C 30.02 in /  1016.5 hPa WNW 6.1 mph /  9.8 km/h 8.0 mph /  12.9 km/h 57 % 0.00 in /  0 mm
10:20 85.2 °F /  29.6 °C 68.2 °F /  20.1 °C 30.02 in /  1016.5 hPa WSW 1.6 mph /  2.6 km/h 3.0 mph /  4.8 km/h 57 % 0.00 in /  0 mm
10:26 85.9 °F /  29.9 °C 66.8 °F /  19.3 °C 30.02 in /  1016.5 hPa West 6.3 mph /  10.1 km/h 9.2 mph /  14.8 km/h 53 % 0.00 in /  0 mm
10:31 86.3 °F /  30.2 °C 67.2 °F /  19.6 °C 30.02 in /  1016.5 hPa West 2.6 mph /  4.2 km/h 9.2 mph /  14.8 km/h 53 % 0.00 in /  0 mm
10:36 86.8 °F /  30.4 °C 68.2 °F /  20.1 °C 30.02 in /  1016.5 hPa NW 4.1 mph /  6.6 km/h 9.2 mph /  14.8 km/h 54 % 0.00 in /  0 mm
10:41 87.1 °F /  30.6 °C 67.3 °F /  19.6 °C 30.02 in /  1016.5 hPa SW 4.0 mph /  6.4 km/h 5.8 mph /  9.3 km/h 52 % 0.00 in /  0 mm
10:46 87.4 °F /  30.8 °C 68.7 °F /  20.4 °C 30.02 in /  1016.5 hPa WSW 1.0 mph /  1.6 km/h 9.0 mph /  14.5 km/h 54 % 0.00 in /  0 mm
10:51 87.7 °F /  30.9 °C 67.9 °F /  19.9 °C 30.01 in /  1016.1 hPa WSW 3.0 mph /  4.8 km/h 8.0 mph /  12.9 km/h 52 % 0.00 in /  0 mm
10:56 88.0 °F /  31.1 °C 67.6 °F /  19.8 °C 30.01 in /  1016.1 hPa WSW 5.0 mph /  8 km/h 10.0 mph /  16.1 km/h 51 % 0.00 in /  0 mm
11:01 88.4 °F /  31.3 °C 68.5 °F /  20.3 °C 30.01 in /  1016.1 hPa WSW 2.5 mph /  4 km/h 6.9 mph /  11.1 km/h 52 % 0.00 in /  0 mm
11:06 88.7 °F /  31.5 °C 67.7 °F /  19.8 °C 30.01 in /  1016.1 hPa West 3.5 mph /  5.6 km/h 6.9 mph /  11.1 km/h 50 % 0.00 in /  0 mm
11:11 89.1 °F /  31.7 °C 68.0 °F /  20 °C 30.01 in /  1016.1 hPa WSW 4.6 mph /  7.4 km/h 7.0 mph /  11.3 km/h 50 % 0.00 in /  0 mm
11:16 89.3 °F /  31.8 °C 67.0 °F /  19.4 °C 30.01 in /  1016.1 hPa WSW 6.2 mph /  10 km/h 10.4 mph /  16.7 km/h 48 % 0.00 in /  0 mm
11:21 89.6 °F /  32 °C 67.3 °F /  19.6 °C 30.01 in /  1016.1 hPa WNW 2.8 mph /  4.5 km/h 4.6 mph /  7.4 km/h 48 % 0.00 in /  0 mm
11:26 90.0 °F /  32.2 °C 67.7 °F /  19.8 °C 30.00 in /  1015.8 hPa WSW 3.9 mph /  6.3 km/h 8.0 mph /  12.9 km/h 48 % 0.00 in /  0 mm
11:31 90.3 °F /  32.4 °C 68.5 °F /  20.3 °C 30.00 in /  1015.8 hPa WSW 1.5 mph /  2.4 km/h 3.5 mph /  5.6 km/h 49 % 0.00 in /  0 mm
11:36 90.7 °F /  32.6 °C 67.7 °F /  19.8 °C 30.00 in /  1015.8 hPa West 3.4 mph /  5.5 km/h 9.2 mph /  14.8 km/h 47 % 0.00 in /  0 mm
11:41 91.0 °F /  32.8 °C 67.3 °F /  19.6 °C 30.00 in /  1015.8 hPa WSW 5.0 mph /  8 km/h 9.2 mph /  14.8 km/h 46 % 0.00 in /  0 mm
11:46 91.1 °F /  32.8 °C 67.4 °F /  19.7 °C 30.00 in /  1015.8 hPa WSW 5.7 mph /  9.2 km/h 9.0 mph /  14.5 km/h 46 % 0.00 in /  0 mm
11:51 91.4 °F /  33 °C 68.3 °F /  20.2 °C 30.00 in /  1015.8 hPa WNW 4.0 mph /  6.4 km/h 8.1 mph /  13 km/h 47 % 0.00 in /  0 mm
11:56 91.6 °F /  33.1 °C 67.9 °F /  19.9 °C 30.00 in /  1015.8 hPa WSW 3.0 mph /  4.8 km/h 4.6 mph /  7.4 km/h 46 % 0.00 in /  0 mm
12:01 91.7 °F /  33.2 °C 69.8 °F /  21 °C 30.00 in /  1015.8 hPa West 1.6 mph /  2.6 km/h 3.0 mph /  4.8 km/h 49 % 0.00 in /  0 mm
12:06 91.8 °F /  33.2 °C 67.4 °F /  19.7 °C 30.00 in /  1015.8 hPa NW 3.9 mph /  6.3 km/h 4.6 mph /  7.4 km/h 45 % 0.00 in /  0 mm
12:11 91.7 °F /  33.2 °C 66.7 °F /  19.3 °C 30.00 in /  1015.8 hPa WNW 3.1 mph /  5 km/h 8.1 mph /  13 km/h 44 % 0.00 in /  0 mm
12:17 91.8 °F /  33.2 °C 68.1 °F /  20.1 °C 30.00 in /  1015.8 hPa WNW 3.0 mph /  4.8 km/h 6.9 mph /  11.1 km/h 46 % 0.00 in /  0 mm
12:22 91.8 °F /  33.2 °C 67.4 °F /  19.7 °C 30.00 in /  1015.8 hPa WNW 1.0 mph /  1.6 km/h 4.6 mph /  7.4 km/h 45 % 0.00 in /  0 mm
12:27 92.0 °F /  33.3 °C 68.9 °F /  20.5 °C 30.00 in /  1015.8 hPa WSW 3.5 mph /  5.6 km/h 8.1 mph /  13 km/h 47 % 0.00 in /  0 mm
12:32 91.9 °F /  33.3 °C 67.5 °F /  19.7 °C 30.00 in /  1015.8 hPa SW 2.3 mph /  3.7 km/h 9.2 mph /  14.8 km/h 45 % 0.00 in /  0 mm
12:33 92.0 °F /  33.3 °C 67.6 °F /  19.8 °C 30.00 in /  1015.8 hPa WSW 2.7 mph /  4.3 km/h 9.2 mph /  14.8 km/h 45 % 0.00 in /  0 mm
12:38 91.9 °F /  33.3 °C 67.5 °F /  19.7 °C 30.00 in /  1015.8 hPa WSW 3.8 mph /  6.1 km/h 7.0 mph /  11.3 km/h 45 % 0.00 in /  0 mm
12:43 91.9 °F /  33.3 °C 68.8 °F /  20.4 °C 30.00 in /  1015.8 hPa WSW 2.1 mph /  3.4 km/h 3.5 mph /  5.6 km/h 47 % 0.00 in /  0 mm
12:48 92.1 °F /  33.4 °C 68.3 °F /  20.2 °C 30.00 in /  1015.8 hPa WSW 4.5 mph /  7.2 km/h 9.2 mph /  14.8 km/h 46 % 0.00 in /  0 mm
12:58 92.3 °F /  33.5 °C 67.9 °F /  19.9 °C 29.99 in /  1015.5 hPa SW 3.9 mph /  6.3 km/h 5.8 mph /  9.3 km/h 45 % 0.00 in /  0 mm
13:03 92.7 °F /  33.7 °C 68.9 °F /  20.5 °C 29.99 in /  1015.5 hPa SSW 2.6 mph /  4.2 km/h 3.5 mph /  5.6 km/h 46 % 0.00 in /  0 mm
13:08 93.1 °F /  33.9 °C 68.6 °F /  20.3 °C 29.99 in /  1015.5 hPa NW 4.7 mph /  7.6 km/h 6.9 mph /  11.1 km/h 45 % 0.00 in /  0 mm
13:13 93.5 °F /  34.2 °C 67.6 °F /  19.8 °C 29.98 in /  1015.1 hPa WSW 6.2 mph /  10 km/h 9.2 mph /  14.8 km/h 43 % 0.00 in /  0 mm
13:18 93.6 °F /  34.2 °C 67.7 °F /  19.8 °C 29.98 in /  1015.1 hPa WNW 2.5 mph /  4 km/h 3.5 mph /  5.6 km/h 43 % 0.00 in /  0 mm
13:23 93.8 °F /  34.3 °C 67.2 °F /  19.6 °C 29.97 in /  1014.8 hPa WSW 3.3 mph /  5.3 km/h 6.9 mph /  11.1 km/h 42 % 0.00 in /  0 mm
13:24 93.9 °F /  34.4 °C 68.0 °F /  20 °C 29.97 in /  1014.8 hPa SW 1.7 mph /  2.7 km/h 4.6 mph /  7.4 km/h 43 % 0.00 in /  0 mm
13:29 94.2 °F /  34.6 °C 66.9 °F /  19.4 °C 29.97 in /  1014.8 hPa SW 4.0 mph /  6.4 km/h 5.8 mph /  9.3 km/h 41 % 0.00 in /  0 mm
13:34 94.6 °F /  34.8 °C 67.3 °F /  19.6 °C 29.97 in /  1014.8 hPa SW 4.8 mph /  7.7 km/h 8.0 mph /  12.9 km/h 41 % 0.00 in /  0 mm
13:39 94.8 °F /  34.9 °C 66.0 °F /  18.9 °C 29.97 in /  1014.8 hPa SW 4.5 mph /  7.2 km/h 10.0 mph /  16.1 km/h 39 % 0.00 in /  0 mm
13:44 95.1 °F /  35.1 °C 67.7 °F /  19.8 °C 29.97 in /  1014.8 hPa WSW 0.8 mph /  1.3 km/h 4.0 mph /  6.4 km/h 41 % 0.00 in /  0 mm
13:49 95.4 °F /  35.2 °C 70.0 °F /  21.1 °C 29.97 in /  1014.8 hPa SSW 2.6 mph /  4.2 km/h 5.0 mph /  8 km/h 44 % 0.00 in /  0 mm
13:54 95.4 °F /  35.2 °C 70.0 °F /  21.1 °C 29.97 in /  1014.8 hPa SW 3.3 mph /  5.3 km/h 8.0 mph /  12.9 km/h 44 % 0.00 in /  0 mm
13:59 95.4 °F /  35.2 °C 70.7 °F /  21.5 °C 29.97 in /  1014.8 hPa SSW 0.5 mph /  0.8 km/h 2.0 mph /  3.2 km/h 45 % 0.00 in /  0 mm
14:04 95.4 °F /  35.2 °C 70.0 °F /  21.1 °C 29.97 in /  1014.8 hPa SW 4.7 mph /  7.6 km/h 6.9 mph /  11.1 km/h 44 % 0.00 in /  0 mm
14:09 95.2 °F /  35.1 °C 69.8 °F /  21 °C 29.96 in /  1014.4 hPa SSW 3.0 mph /  4.8 km/h 5.8 mph /  9.3 km/h 44 % 0.00 in /  0 mm
14:14 94.9 °F /  34.9 °C 69.6 °F /  20.9 °C 29.96 in /  1014.4 hPa South 2.0 mph /  3.2 km/h 5.0 mph /  8 km/h 44 % 0.00 in /  0 mm
14:19 94.6 °F /  34.8 °C 70.0 °F /  21.1 °C 29.96 in /  1014.4 hPa SSW 4.5 mph /  7.2 km/h 7.0 mph /  11.3 km/h 45 % 0.00 in /  0 mm
14:25 94.5 °F /  34.7 °C 68.5 °F /  20.3 °C 29.96 in /  1014.4 hPa SE 0.8 mph /  1.3 km/h 4.6 mph /  7.4 km/h 43 % 0.00 in /  0 mm
14:30 94.5 °F /  34.7 °C 68.5 °F /  20.3 °C 29.96 in /  1014.4 hPa SW 2.1 mph /  3.4 km/h 5.8 mph /  9.3 km/h 43 % 0.00 in /  0 mm
14:35 94.7 °F /  34.8 °C 68.7 °F /  20.4 °C 29.96 in /  1014.4 hPa SW 4.7 mph /  7.6 km/h 10.4 mph /  16.7 km/h 43 % 0.00 in /  0 mm
14:40 94.8 °F /  34.9 °C 67.4 °F /  19.7 °C 29.95 in /  1014.1 hPa SSW 6.3 mph /  10.1 km/h 10.4 mph /  16.7 km/h 41 % 0.00 in /  0 mm
14:45 94.8 °F /  34.9 °C 68.1 °F /  20.1 °C 29.95 in /  1014.1 hPa South 1.1 mph /  1.8 km/h 5.0 mph /  8 km/h 42 % 0.00 in /  0 mm
14:50 94.7 °F /  34.8 °C 67.3 °F /  19.6 °C 29.95 in /  1014.1 hPa WSW 3.7 mph /  6 km/h 6.9 mph /  11.1 km/h 41 % 0.00 in /  0 mm
14:55 94.8 °F /  34.9 °C 67.4 °F /  19.7 °C 29.95 in /  1014.1 hPa SW 2.2 mph /  3.5 km/h 6.9 mph /  11.1 km/h 41 % 0.00 in /  0 mm
15:00 94.8 °F /  34.9 °C 68.8 °F /  20.4 °C 29.95 in /  1014.1 hPa SSW 3.8 mph /  6.1 km/h 8.0 mph /  12.9 km/h 43 % 0.00 in /  0 mm
15:05 94.7 °F /  34.8 °C 66.6 °F /  19.2 °C 29.95 in /  1014.1 hPa West 8.3 mph /  13.4 km/h 10.0 mph /  16.1 km/h 40 % 0.00 in /  0 mm
15:10 94.7 °F /  34.8 °C 68.0 °F /  20 °C 29.95 in /  1014.1 hPa West 1.7 mph /  2.7 km/h 6.9 mph /  11.1 km/h 42 % 0.00 in /  0 mm
15:15 94.7 °F /  34.8 °C 67.3 °F /  19.6 °C 29.95 in /  1014.1 hPa WSW 1.8 mph /  2.9 km/h 6.9 mph /  11.1 km/h 41 % 0.00 in /  0 mm
15:20 94.9 °F /  34.9 °C 66.8 °F /  19.3 °C 29.95 in /  1014.1 hPa SSW 5.9 mph /  9.5 km/h 17.3 mph /  27.8 km/h 40 % 0.00 in /  0 mm
15:25 94.9 °F /  34.9 °C 67.5 °F /  19.7 °C 29.94 in /  1013.8 hPa SSW 1.9 mph /  3.1 km/h 5.0 mph /  8 km/h 41 % 0.00 in /  0 mm
15:30 94.8 °F /  34.9 °C 66.7 °F /  19.3 °C 29.94 in /  1013.8 hPa SSW 3.6 mph /  5.8 km/h 5.8 mph /  9.3 km/h 40 % 0.00 in /  0 mm
15:35 94.8 °F /  34.9 °C 68.8 °F /  20.4 °C 29.94 in /  1013.8 hPa SW 1.4 mph /  2.3 km/h 5.0 mph /  8 km/h 43 % 0.00 in /  0 mm
15:40 94.8 °F /  34.9 °C 67.4 °F /  19.7 °C 29.94 in /  1013.8 hPa SW 4.3 mph /  6.9 km/h 6.9 mph /  11.1 km/h 41 % 0.00 in /  0 mm
15:46 94.8 °F /  34.9 °C 66.7 °F /  19.3 °C 29.94 in /  1013.8 hPa SSW 2.5 mph /  4 km/h 6.9 mph /  11.1 km/h 40 % 0.00 in /  0 mm
15:51 94.8 °F /  34.9 °C 67.4 °F /  19.7 °C 29.94 in /  1013.8 hPa SSW 6.0 mph /  9.7 km/h 17.0 mph /  27.4 km/h 41 % 0.00 in /  0 mm
15:56 94.8 °F /  34.9 °C 68.1 °F /  20.1 °C 29.94 in /  1013.8 hPa WSW 1.4 mph /  2.3 km/h 8.1 mph /  13 km/h 42 % 0.00 in /  0 mm
16:01 94.8 °F /  34.9 °C 69.5 °F /  20.8 °C 29.94 in /  1013.8 hPa SSW 0.7 mph /  1.1 km/h 3.0 mph /  4.8 km/h 44 % 0.00 in /  0 mm
16:06 94.8 °F /  34.9 °C 68.1 °F /  20.1 °C 29.94 in /  1013.8 hPa SSW 5.2 mph /  8.4 km/h 11.5 mph /  18.5 km/h 42 % 0.00 in /  0 mm
16:11 94.4 °F /  34.7 °C 67.8 °F /  19.9 °C 29.94 in /  1013.8 hPa SSW 1.2 mph /  1.9 km/h 3.5 mph /  5.6 km/h 42 % 0.00 in /  0 mm
16:16 94.2 °F /  34.6 °C 68.3 °F /  20.2 °C 29.95 in /  1014.1 hPa SSE 3.1 mph /  5 km/h 6.9 mph /  11.1 km/h 43 % 0.00 in /  0 mm
16:21 94.1 °F /  34.5 °C 68.9 °F /  20.5 °C 29.94 in /  1013.8 hPa SSW 2.3 mph /  3.7 km/h 4.0 mph /  6.4 km/h 44 % 0.00 in /  0 mm
16:26 93.8 °F /  34.3 °C 67.2 °F /  19.6 °C 29.94 in /  1013.8 hPa WSW 3.3 mph /  5.3 km/h 10.4 mph /  16.7 km/h 42 % 0.00 in /  0 mm
16:31 93.3 °F /  34.1 °C 68.1 °F /  20.1 °C 29.95 in /  1014.1 hPa SSW 3.0 mph /  4.8 km/h 11.5 mph /  18.5 km/h 44 % 0.00 in /  0 mm
16:36 93.0 °F /  33.9 °C 67.9 °F /  19.9 °C 29.95 in /  1014.1 hPa SE 2.8 mph /  4.5 km/h 5.8 mph /  9.3 km/h 44 % 0.00 in /  0 mm
16:41 92.8 °F /  33.8 °C 67.7 °F /  19.8 °C 29.95 in /  1014.1 hPa SSW 3.4 mph /  5.5 km/h 10.4 mph /  16.7 km/h 44 % 0.00 in /  0 mm
16:46 92.3 °F /  33.5 °C 68.5 °F /  20.3 °C 29.95 in /  1014.1 hPa WNW 2.2 mph /  3.5 km/h 5.0 mph /  8 km/h 46 % 0.00 in /  0 mm
16:51 92.1 °F /  33.4 °C 68.3 °F /  20.2 °C 29.95 in /  1014.1 hPa SSE 2.1 mph /  3.4 km/h 4.6 mph /  7.4 km/h 46 % 0.00 in /  0 mm
16:56 91.9 °F /  33.3 °C 68.2 °F /  20.1 °C 29.95 in /  1014.1 hPa WSW 1.6 mph /  2.6 km/h 7.0 mph /  11.3 km/h 46 % 0.00 in /  0 mm
17:01 91.5 °F /  33.1 °C 67.8 °F /  19.9 °C 29.95 in /  1014.1 hPa SSW 1.2 mph /  1.9 km/h 5.8 mph /  9.3 km/h 46 % 0.00 in /  0 mm
17:06 91.2 °F /  32.9 °C 67.5 °F /  19.7 °C 29.94 in /  1013.8 hPa SW 3.8 mph /  6.1 km/h 10.4 mph /  16.7 km/h 46 % 0.00 in /  0 mm
17:11 90.8 °F /  32.7 °C 67.2 °F /  19.6 °C 29.94 in /  1013.8 hPa SSW 3.4 mph /  5.5 km/h 5.8 mph /  9.3 km/h 46 % 0.00 in /  0 mm
17:16 90.4 °F /  32.4 °C 66.8 °F /  19.3 °C 29.94 in /  1013.8 hPa SW 1.8 mph /  2.9 km/h 4.0 mph /  6.4 km/h 46 % 0.00 in /  0 mm
17:21 90.1 °F /  32.3 °C 67.8 °F /  19.9 °C 29.94 in /  1013.8 hPa SW 2.3 mph /  3.7 km/h 7.0 mph /  11.3 km/h 48 % 0.00 in /  0 mm
17:26 89.6 °F /  32 °C 67.3 °F /  19.6 °C 29.94 in /  1013.8 hPa South 1.2 mph /  1.9 km/h 3.5 mph /  5.6 km/h 48 % 0.00 in /  0 mm
17:31 89.2 °F /  31.8 °C 68.1 °F /  20.1 °C 29.94 in /  1013.8 hPa SW 1.5 mph /  2.4 km/h 3.5 mph /  5.6 km/h 50 % 0.00 in /  0 mm
17:36 88.7 °F /  31.5 °C 67.1 °F /  19.5 °C 29.94 in /  1013.8 hPa SSW 2.4 mph /  3.9 km/h 4.6 mph /  7.4 km/h 49 % 0.00 in /  0 mm
17:41 88.3 °F /  31.3 °C 67.3 °F /  19.6 °C 29.93 in /  1013.4 hPa WSW 1.9 mph /  3.1 km/h 3.5 mph /  5.6 km/h 50 % 0.00 in /  0 mm
17:46 88.0 °F /  31.1 °C 68.2 °F /  20.1 °C 29.93 in /  1013.4 hPa SSW 1.7 mph /  2.7 km/h 3.5 mph /  5.6 km/h 52 % 0.00 in /  0 mm
17:51 87.6 °F /  30.9 °C 67.8 °F /  19.9 °C 29.93 in /  1013.4 hPa SSE 0.6 mph /  1 km/h 2.3 mph /  3.7 km/h 52 % 0.00 in /  0 mm
17:57 87.2 °F /  30.7 °C 67.4 °F /  19.7 °C 29.93 in /  1013.4 hPa South 0.8 mph /  1.3 km/h 3.5 mph /  5.6 km/h 52 % 0.00 in /  0 mm
18:02 86.8 °F /  30.4 °C 67.6 °F /  19.8 °C 29.92 in /  1013.1 hPa SSW 0.9 mph /  1.4 km/h 4.6 mph /  7.4 km/h 53 % 0.00 in /  0 mm
18:07 86.5 °F /  30.3 °C 67.9 °F /  19.9 °C 29.92 in /  1013.1 hPa SW 0.9 mph /  1.4 km/h 3.5 mph /  5.6 km/h 54 % 0.00 in /  0 mm
18:12 86.2 °F /  30.1 °C 67.6 °F /  19.8 °C 29.93 in /  1013.4 hPa West 2.0 mph /  3.2 km/h 4.6 mph /  7.4 km/h 54 % 0.00 in /  0 mm
18:17 85.9 °F /  29.9 °C 67.3 °F /  19.6 °C 29.93 in /  1013.4 hPa SSE 2.4 mph /  3.9 km/h 4.6 mph /  7.4 km/h 54 % 0.00 in /  0 mm
18:22 85.6 °F /  29.8 °C 67.0 °F /  19.4 °C 29.93 in /  1013.4 hPa WSW 2.6 mph /  4.2 km/h 3.5 mph /  5.6 km/h 54 % 0.00 in /  0 mm
18:27 85.4 °F /  29.7 °C 66.9 °F /  19.4 °C 29.93 in /  1013.4 hPa WSW 2.8 mph /  4.5 km/h 8.0 mph /  12.9 km/h 54 % 0.00 in /  0 mm
18:32 85.2 °F /  29.6 °C 67.2 °F /  19.6 °C 29.93 in /  1013.4 hPa South 1.9 mph /  3.1 km/h 3.5 mph /  5.6 km/h 55 % 0.00 in /  0 mm
18:37 85.1 °F /  29.5 °C 67.1 °F /  19.5 °C 29.92 in /  1013.1 hPa SSW 0.9 mph /  1.4 km/h 3.5 mph /  5.6 km/h 55 % 0.00 in /  0 mm
18:42 85.0 °F /  29.4 °C 67.0 °F /  19.4 °C 29.92 in /  1013.1 hPa SSE 0.2 mph /  0.3 km/h 2.3 mph /  3.7 km/h 55 % 0.00 in /  0 mm
18:47 84.9 °F /  29.4 °C 67.5 °F /  19.7 °C 29.92 in /  1013.1 hPa SW 0.7 mph /  1.1 km/h 3.0 mph /  4.8 km/h 56 % 0.00 in /  0 mm
18:52 84.8 °F /  29.3 °C 67.4 °F /  19.7 °C 29.92 in /  1013.1 hPa SSW 0.2 mph /  0.3 km/h 3.5 mph /  5.6 km/h 56 % 0.00 in /  0 mm
18:57 84.7 °F /  29.3 °C 67.3 °F /  19.6 °C 29.92 in /  1013.1 hPa SW 0.7 mph /  1.1 km/h 2.3 mph /  3.7 km/h 56 % 0.00 in /  0 mm
19:02 84.6 °F /  29.2 °C 67.7 °F /  19.8 °C 29.92 in /  1013.1 hPa SE 0.7 mph /  1.1 km/h 3.5 mph /  5.6 km/h 57 % 0.00 in /  0 mm
19:07 84.4 °F /  29.1 °C 67.5 °F /  19.7 °C 29.93 in /  1013.4 hPa SW 0.5 mph /  0.8 km/h 2.3 mph /  3.7 km/h 57 % 0.00 in /  0 mm
19:12 84.3 °F /  29.1 °C 67.4 °F /  19.7 °C 29.93 in /  1013.4 hPa SW 0.4 mph /  0.6 km/h 1.2 mph /  1.9 km/h 57 % 0.00 in /  0 mm
19:17 84.2 °F /  29 °C 67.3 °F /  19.6 °C 29.92 in /  1013.1 hPa SW 0.1 mph /  0.2 km/h 1.2 mph /  1.9 km/h 57 % 0.00 in /  0 mm
19:22 84.1 °F /  28.9 °C 67.7 °F /  19.8 °C 29.92 in /  1013.1 hPa Calm   1.2 mph /  1.9 km/h 58 % 0.00 in /  0 mm
19:27 84.0 °F /  28.9 °C 67.6 °F /  19.8 °C 29.93 in /  1013.4 hPa SW 1.7 mph /  2.7 km/h 3.0 mph /  4.8 km/h 58 % 0.00 in /  0 mm
19:32 83.8 °F /  28.8 °C 66.9 °F /  19.4 °C 29.93 in /  1013.4 hPa Calm   1.2 mph /  1.9 km/h 57 % 0.00 in /  0 mm
19:37 83.8 °F /  28.8 °C 66.9 °F /  19.4 °C 29.93 in /  1013.4 hPa WSW 1.2 mph /  1.9 km/h 3.5 mph /  5.6 km/h 57 % 0.00 in /  0 mm
19:42 83.6 °F /  28.7 °C 66.8 °F /  19.3 °C 29.93 in /  1013.4 hPa WSW 0.1 mph /  0.2 km/h 3.5 mph /  5.6 km/h 57 % 0.00 in /  0 mm
19:47 83.5 °F /  28.6 °C 66.7 °F /  19.3 °C 29.93 in /  1013.4 hPa WSW 0.3 mph /  0.5 km/h 2.3 mph /  3.7 km/h 57 % 0.00 in /  0 mm
19:52 83.4 °F /  28.6 °C 66.6 °F /  19.2 °C 29.93 in /  1013.4 hPa Calm     57 % 0.00 in /  0 mm
19:57 83.2 °F /  28.4 °C 66.9 °F /  19.4 °C 29.93 in /  1013.4 hPa WSW 0.1 mph /  0.2 km/h 1.2 mph /  1.9 km/h 58 % 0.00 in /  0 mm
20:02 83.0 °F /  28.3 °C 67.2 °F /  19.6 °C 29.93 in /  1013.4 hPa Calm     59 % 0.00 in /  0 mm
20:07 82.8 °F /  28.2 °C 67.0 °F /  19.4 °C 29.93 in /  1013.4 hPa WSW 0.4 mph /  0.6 km/h 1.2 mph /  1.9 km/h 59 % 0.00 in /  0 mm
20:12 82.5 °F /  28.1 °C 66.7 °F /  19.3 °C 29.93 in /  1013.4 hPa Calm     59 % 0.00 in /  0 mm
20:17 82.2 °F /  27.9 °C 66.4 °F /  19.1 °C 29.93 in /  1013.4 hPa Calm     59 % 0.00 in /  0 mm
20:23 82.0 °F /  27.8 °C 66.7 °F /  19.3 °C 29.93 in /  1013.4 hPa WSW 1.2 mph /  1.9 km/h 2.3 mph /  3.7 km/h 60 % 0.00 in /  0 mm
20:28 81.7 °F /  27.6 °C 66.5 °F /  19.2 °C 29.93 in /  1013.4 hPa WSW 0.3 mph /  0.5 km/h 1.2 mph /  1.9 km/h 60 % 0.00 in /  0 mm
20:33 81.5 °F /  27.5 °C 66.3 °F /  19.1 °C 29.93 in /  1013.4 hPa WSW 0.7 mph /  1.1 km/h 1.2 mph /  1.9 km/h 60 % 0.00 in /  0 mm
20:38 81.2 °F /  27.3 °C 66.5 °F /  19.2 °C 29.93 in /  1013.4 hPa WSW 0.2 mph /  0.3 km/h 1.2 mph /  1.9 km/h 61 % 0.00 in /  0 mm
20:43 80.9 °F /  27.2 °C 66.2 °F /  19 °C 29.93 in /  1013.4 hPa WSW 0.1 mph /  0.2 km/h 1.2 mph /  1.9 km/h 61 % 0.00 in /  0 mm
20:48 80.6 °F /  27 °C 65.9 °F /  18.8 °C 29.94 in /  1013.8 hPa WSW 0.1 mph /  0.2 km/h 2.0 mph /  3.2 km/h 61 % 0.00 in /  0 mm
20:53 80.3 °F /  26.8 °C 66.1 °F /  18.9 °C 29.93 in /  1013.4 hPa WSW 0.8 mph /  1.3 km/h 2.3 mph /  3.7 km/h 62 % 0.00 in /  0 mm
20:58 80.1 °F /  26.7 °C 65.4 °F /  18.6 °C 29.93 in /  1013.4 hPa WSW 0.4 mph /  0.6 km/h 1.2 mph /  1.9 km/h 61 % 0.00 in /  0 mm
21:03 79.8 °F /  26.6 °C 65.6 °F /  18.7 °C 29.93 in /  1013.4 hPa Calm   2.3 mph /  3.7 km/h 62 % 0.00 in /  0 mm
21:08 79.6 °F /  26.4 °C 65.9 °F /  18.8 °C 29.94 in /  1013.8 hPa Calm     63 % 0.00 in /  0 mm
21:13 79.3 °F /  26.3 °C 65.6 °F /  18.7 °C 29.94 in /  1013.8 hPa Calm     63 % 0.00 in /  0 mm
21:18 79.1 °F /  26.2 °C 65.4 °F /  18.6 °C 29.94 in /  1013.8 hPa Calm   1.2 mph /  1.9 km/h 63 % 0.00 in /  0 mm
21:23 78.9 °F /  26.1 °C 65.7 °F /  18.7 °C 29.95 in /  1014.1 hPa Calm     64 % 0.00 in /  0 mm
21:28 78.7 °F /  25.9 °C 65.5 °F /  18.6 °C 29.95 in /  1014.1 hPa Calm     64 % 0.00 in /  0 mm
21:33 78.5 °F /  25.8 °C 65.8 °F /  18.8 °C 29.95 in /  1014.1 hPa Calm     65 % 0.00 in /  0 mm
21:38 78.2 °F /  25.7 °C 65.5 °F /  18.6 °C 29.94 in /  1013.8 hPa Calm     65 % 0.00 in /  0 mm
21:43 78.0 °F /  25.6 °C 65.3 °F /  18.5 °C 29.95 in /  1014.1 hPa Calm     65 % 0.00 in /  0 mm
21:48 77.7 °F /  25.4 °C 65.4 °F /  18.6 °C 29.95 in /  1014.1 hPa Calm     66 % 0.00 in /  0 mm
21:53 77.5 °F /  25.3 °C 65.7 °F /  18.7 °C 29.95 in /  1014.1 hPa Calm     67 % 0.00 in /  0 mm
21:58 77.3 °F /  25.2 °C 65.5 °F /  18.6 °C 29.95 in /  1014.1 hPa Calm     67 % 0.00 in /  0 mm
22:03 77.0 °F /  25 °C 65.2 °F /  18.4 °C 29.95 in /  1014.1 hPa Calm     67 % 0.00 in /  0 mm
22:08 76.7 °F /  24.8 °C 64.9 °F /  18.3 °C 29.95 in /  1014.1 hPa Calm   1.0 mph /  1.6 km/h 67 % 0.00 in /  0 mm
22:13 76.5 °F /  24.7 °C 65.1 °F /  18.4 °C 29.95 in /  1014.1 hPa Calm     68 % 0.00 in /  0 mm
22:18 76.3 °F /  24.6 °C 65.0 °F /  18.3 °C 29.95 in /  1014.1 hPa WSW 0.1 mph /  0.2 km/h 1.2 mph /  1.9 km/h 68 % 0.00 in /  0 mm
22:23 76.0 °F /  24.4 °C 65.1 °F /  18.4 °C 29.95 in /  1014.1 hPa Calm   1.2 mph /  1.9 km/h 69 % 0.00 in /  0 mm
22:28 75.8 °F /  24.3 °C 64.9 °F /  18.3 °C 29.95 in /  1014.1 hPa WSW 0.9 mph /  1.4 km/h 2.3 mph /  3.7 km/h 69 % 0.00 in /  0 mm
22:33 75.6 °F /  24.2 °C 64.7 °F /  18.2 °C 29.95 in /  1014.1 hPa Calm     69 % 0.00 in /  0 mm
22:38 75.5 °F /  24.2 °C 65.0 °F /  18.3 °C 29.95 in /  1014.1 hPa Calm     70 % 0.00 in /  0 mm
22:43 75.3 °F /  24.1 °C 64.8 °F /  18.2 °C 29.95 in /  1014.1 hPa Calm   1.2 mph /  1.9 km/h 70 % 0.00 in /  0 mm
22:44 75.2 °F /  24 °C 64.7 °F /  18.2 °C 29.95 in /  1014.1 hPa WSW 0.1 mph /  0.2 km/h 1.2 mph /  1.9 km/h 70 % 0.00 in /  0 mm
22:49 75.1 °F /  23.9 °C 64.6 °F /  18.1 °C 29.95 in /  1014.1 hPa Calm     70 % 0.00 in /  0 mm
22:54 74.9 °F /  23.8 °C 64.9 °F /  18.3 °C 29.95 in /  1014.1 hPa Calm     71 % 0.00 in /  0 mm
22:59 74.8 °F /  23.8 °C 64.8 °F /  18.2 °C 29.95 in /  1014.1 hPa Calm     71 % 0.00 in /  0 mm
23:04 74.7 °F /  23.7 °C 64.7 °F /  18.2 °C 29.95 in /  1014.1 hPa WSW 0.4 mph /  0.6 km/h 1.2 mph /  1.9 km/h 71 % 0.00 in /  0 mm
23:09 74.6 °F /  23.7 °C 64.6 °F /  18.1 °C 29.95 in /  1014.1 hPa Calm   2.3 mph /  3.7 km/h 71 % 0.00 in /  0 mm
23:14 74.5 °F /  23.6 °C 64.9 °F /  18.3 °C 29.95 in /  1014.1 hPa WSW 1.2 mph /  1.9 km/h 3.5 mph /  5.6 km/h 72 % 0.00 in /  0 mm
23:19 74.5 °F /  23.6 °C 64.9 °F /  18.3 °C 29.95 in /  1014.1 hPa WSW 1.8 mph /  2.9 km/h 3.5 mph /  5.6 km/h 72 % 0.00 in /  0 mm
23:24 74.5 °F /  23.6 °C 64.9 °F /  18.3 °C 29.95 in /  1014.1 hPa West 0.6 mph /  1 km/h 3.0 mph /  4.8 km/h 72 % 0.00 in /  0 mm
23:29 74.6 °F /  23.7 °C 65.4 °F /  18.6 °C 29.95 in /  1014.1 hPa SSW 0.9 mph /  1.4 km/h 3.0 mph /  4.8 km/h 73 % 0.00 in /  0 mm
23:34 74.7 °F /  23.7 °C 65.1 °F /  18.4 °C 29.95 in /  1014.1 hPa WSW 3.9 mph /  6.3 km/h 5.0 mph /  8 km/h 72 % 0.00 in /  0 mm
23:39 74.8 °F /  23.8 °C 65.2 °F /  18.4 °C 29.95 in /  1014.1 hPa SW 1.7 mph /  2.7 km/h 3.5 mph /  5.6 km/h 72 % 0.00 in /  0 mm
23:44 75.0 °F /  23.9 °C 65.4 °F /  18.6 °C 29.95 in /  1014.1 hPa SW 0.3 mph /  0.5 km/h 1.2 mph /  1.9 km/h 72 % 0.00 in /  0 mm
23:49 75.1 °F /  23.9 °C 65.1 °F /  18.4 °C 29.95 in /  1014.1 hPa SW 0.3 mph /  0.5 km/h 3.5 mph /  5.6 km/h 71 % 0.00 in /  0 mm
23:54 75.2 °F /  24 °C 65.1 °F /  18.4 °C 29.95 in /  1014.1 hPa Calm     71 % 0.00 in /  0 mm
23:59 75.3 °F /  24.1 °C 65.2 °F /  18.4 °C 29.95 in /  1014.1 hPa SW 0.6 mph /  1 km/h 1.2 mph /  1.9 km/h 71 % 0.00 in /  0 mm
Crab Meadow Weather
Compliments of Weather Underground - 3 mb

Script developed by  Jim McMurry - jmcmurry@mwt.net Adapted for the template by  Wim van der Kuil - Leuven-Template.eu

Extremes: Alaska and Hawaii have the same heat record. In Pahala, Hawaii the temperature on April 27, 1931 was 100 degrees F. Alaska's state heat record is also 100 degrees F. on June 27, 1915 at Fort Yukon.